sensor_id;sensor_type;location;lat;lon;timestamp;temperature;humidity
10583;DHT22;33679;51.218;6.786;2023-07-08T00:01:26;26.60;92.90
10583;DHT22;33679;51.218;6.786;2023-07-08T00:04:00;26.60;92.90
10583;DHT22;33679;51.218;6.786;2023-07-08T00:06:35;26.60;92.90
10583;DHT22;33679;51.218;6.786;2023-07-08T00:09:10;26.60;92.80
10583;DHT22;33679;51.218;6.786;2023-07-08T00:11:44;26.60;92.90
10583;DHT22;33679;51.218;6.786;2023-07-08T00:14:16;26.60;93.00
10583;DHT22;33679;51.218;6.786;2023-07-08T00:16:48;26.60;93.10
10583;DHT22;33679;51.218;6.786;2023-07-08T00:19:21;26.60;93.00
10583;DHT22;33679;51.218;6.786;2023-07-08T00:21:54;26.60;93.00
10583;DHT22;33679;51.218;6.786;2023-07-08T00:24:26;26.60;93.00
10583;DHT22;33679;51.218;6.786;2023-07-08T00:27:01;26.60;93.00
10583;DHT22;33679;51.218;6.786;2023-07-08T00:29:33;26.60;92.90
10583;DHT22;33679;51.218;6.786;2023-07-08T00:32:11;26.60;92.90
10583;DHT22;33679;51.218;6.786;2023-07-08T00:34:43;26.70;93.00
10583;DHT22;33679;51.218;6.786;2023-07-08T00:37:15;26.60;92.90
10583;DHT22;33679;51.218;6.786;2023-07-08T00:39:49;26.60;92.90
10583;DHT22;33679;51.218;6.786;2023-07-08T00:42:24;26.60;92.90
10583;DHT22;33679;51.218;6.786;2023-07-08T00:44:58;26.70;93.00
10583;DHT22;33679;51.218;6.786;2023-07-08T00:47:30;26.70;92.90
10583;DHT22;33679;51.218;6.786;2023-07-08T00:50:04;26.60;92.90
10583;DHT22;33679;51.218;6.786;2023-07-08T00:52:40;26.70;92.90
10583;DHT22;33679;51.218;6.786;2023-07-08T00:55:13;26.70;92.80
10583;DHT22;33679;51.218;6.786;2023-07-08T00:57:47;26.60;92.90
10583;DHT22;33679;51.218;6.786;2023-07-08T01:00:19;26.60;93.00
10583;DHT22;33679;51.218;6.786;2023-07-08T01:02:54;26.60;93.00
10583;DHT22;33679;51.218;6.786;2023-07-08T01:05:29;26.60;93.10
10583;DHT22;33679;51.218;6.786;2023-07-08T01:08:05;26.60;93.10
10583;DHT22;33679;51.218;6.786;2023-07-08T01:10:41;26.60;93.10
10583;DHT22;33679;51.218;6.786;2023-07-08T01:13:17;26.60;93.20
10583;DHT22;33679;51.218;6.786;2023-07-08T01:15:49;26.60;93.20
10583;DHT22;33679;51.218;6.786;2023-07-08T01:18:23;26.60;93.20
10583;DHT22;33679;51.218;6.786;2023-07-08T01:21:01;26.60;93.20
10583;DHT22;33679;51.218;6.786;2023-07-08T01:23:38;26.60;93.30
10583;DHT22;33679;51.218;6.786;2023-07-08T01:26:11;26.60;93.30
10583;DHT22;33679;51.218;6.786;2023-07-08T01:28:46;26.60;93.30
10583;DHT22;33679;51.218;6.786;2023-07-08T01:31:19;26.60;93.20
10583;DHT22;33679;51.218;6.786;2023-07-08T01:33:46;26.60;93.10
10583;DHT22;33679;51.218;6.786;2023-07-08T01:36:21;26.60;93.10
10583;DHT22;33679;51.218;6.786;2023-07-08T01:38:54;26.60;93.30
10583;DHT22;33679;51.218;6.786;2023-07-08T01:41:27;26.60;93.20
10583;DHT22;33679;51.218;6.786;2023-07-08T01:43:59;26.50;93.10
10583;DHT22;33679;51.218;6.786;2023-07-08T01:46:34;26.60;93.20
10583;DHT22;33679;51.218;6.786;2023-07-08T01:49:07;26.50;93.30
10583;DHT22;33679;51.218;6.786;2023-07-08T01:51:39;26.50;93.70
10583;DHT22;33679;51.218;6.786;2023-07-08T01:54:13;26.50;93.40
10583;DHT22;33679;51.218;6.786;2023-07-08T01:56:45;26.50;93.50
10583;DHT22;33679;51.218;6.786;2023-07-08T01:59:22;26.50;93.40
10583;DHT22;33679;51.218;6.786;2023-07-08T02:01:58;26.50;93.50
10583;DHT22;33679;51.218;6.786;2023-07-08T02:04:30;26.50;93.60
10583;DHT22;33679;51.218;6.786;2023-07-08T02:07:05;26.50;93.60
10583;DHT22;33679;51.218;6.786;2023-07-08T02:09:39;26.50;93.60
10583;DHT22;33679;51.218;6.786;2023-07-08T02:12:12;26.40;93.60
10583;DHT22;33679;51.218;6.786;2023-07-08T02:14:47;26.40;93.70
10583;DHT22;33679;51.218;6.786;2023-07-08T02:17:20;26.40;93.70
10583;DHT22;33679;51.218;6.786;2023-07-08T02:19:52;26.40;93.80
10583;DHT22;33679;51.218;6.786;2023-07-08T02:22:24;26.40;93.80
10583;DHT22;33679;51.218;6.786;2023-07-08T02:24:58;26.40;93.70
10583;DHT22;33679;51.218;6.786;2023-07-08T02:27:30;26.40;93.60
10583;DHT22;33679;51.218;6.786;2023-07-08T02:30:03;26.40;93.70
10583;DHT22;33679;51.218;6.786;2023-07-08T02:32:37;26.40;93.70
10583;DHT22;33679;51.218;6.786;2023-07-08T02:35:11;26.40;93.70
10583;DHT22;33679;51.218;6.786;2023-07-08T02:37:44;26.40;93.90
10583;DHT22;33679;51.218;6.786;2023-07-08T02:40:18;26.40;93.90
10583;DHT22;33679;51.218;6.786;2023-07-08T02:42:51;26.30;93.90
10583;DHT22;33679;51.218;6.786;2023-07-08T02:45:23;26.30;93.90
10583;DHT22;33679;51.218;6.786;2023-07-08T02:47:55;26.30;94.00
10583;DHT22;33679;51.218;6.786;2023-07-08T02:50:28;26.30;94.00
10583;DHT22;33679;51.218;6.786;2023-07-08T02:53:00;26.30;94.10
10583;DHT22;33679;51.218;6.786;2023-07-08T02:55:35;26.30;94.10
10583;DHT22;33679;51.218;6.786;2023-07-08T02:58:08;26.30;94.50
10583;DHT22;33679;51.218;6.786;2023-07-08T03:00:41;26.20;94.30
10583;DHT22;33679;51.218;6.786;2023-07-08T03:03:13;26.20;94.50
10583;DHT22;33679;51.218;6.786;2023-07-08T03:05:54;26.20;94.60
10583;DHT22;33679;51.218;6.786;2023-07-08T03:08:27;26.20;94.80
10583;DHT22;33679;51.218;6.786;2023-07-08T03:11:05;26.20;95.00
10583;DHT22;33679;51.218;6.786;2023-07-08T03:13:37;26.20;95.10
10583;DHT22;33679;51.218;6.786;2023-07-08T03:16:10;26.20;95.20
10583;DHT22;33679;51.218;6.786;2023-07-08T03:18:44;26.10;95.20
10583;DHT22;33679;51.218;6.786;2023-07-08T03:21:18;26.10;95.30
10583;DHT22;33679;51.218;6.786;2023-07-08T03:23:52;26.10;95.40
10583;DHT22;33679;51.218;6.786;2023-07-08T03:26:28;26.10;95.40
10583;DHT22;33679;51.218;6.786;2023-07-08T03:29:05;26.00;95.40
10583;DHT22;33679;51.218;6.786;2023-07-08T03:31:39;26.00;95.40
10583;DHT22;33679;51.218;6.786;2023-07-08T03:34:13;26.00;95.50
10583;DHT22;33679;51.218;6.786;2023-07-08T03:36:48;26.00;95.50
10583;DHT22;33679;51.218;6.786;2023-07-08T03:39:23;26.00;95.50
10583;DHT22;33679;51.218;6.786;2023-07-08T03:41:58;26.00;95.60
10583;DHT22;33679;51.218;6.786;2023-07-08T03:44:30;26.00;95.60
10583;DHT22;33679;51.218;6.786;2023-07-08T03:47:04;26.00;95.60
10583;DHT22;33679;51.218;6.786;2023-07-08T03:49:36;26.00;95.70
10583;DHT22;33679;51.218;6.786;2023-07-08T03:52:13;26.00;95.70
10583;DHT22;33679;51.218;6.786;2023-07-08T03:54:50;26.00;95.70
10583;DHT22;33679;51.218;6.786;2023-07-08T03:57:24;26.00;95.70
10583;DHT22;33679;51.218;6.786;2023-07-08T03:59:56;26.00;95.80
10583;DHT22;33679;51.218;6.786;2023-07-08T04:02:29;26.00;95.80
10583;DHT22;33679;51.218;6.786;2023-07-08T04:05:01;26.00;95.80
10583;DHT22;33679;51.218;6.786;2023-07-08T04:07:34;26.00;95.80
10583;DHT22;33679;51.218;6.786;2023-07-08T04:10:07;26.10;95.80
10583;DHT22;33679;51.218;6.786;2023-07-08T04:12:41;26.10;95.80
10583;DHT22;33679;51.218;6.786;2023-07-08T04:15:15;26.20;95.80
10583;DHT22;33679;51.218;6.786;2023-07-08T04:17:48;26.20;95.80
10583;DHT22;33679;51.218;6.786;2023-07-08T04:20:21;26.30;95.80
10583;DHT22;33679;51.218;6.786;2023-07-08T04:22:55;26.30;95.90
10583;DHT22;33679;51.218;6.786;2023-07-08T04:25:27;26.30;95.80
10583;DHT22;33679;51.218;6.786;2023-07-08T04:28:01;26.30;95.80
10583;DHT22;33679;51.218;6.786;2023-07-08T04:30:33;26.30;95.70
10583;DHT22;33679;51.218;6.786;2023-07-08T04:33:13;26.40;95.80
10583;DHT22;33679;51.218;6.786;2023-07-08T04:35:48;26.40;95.80
10583;DHT22;33679;51.218;6.786;2023-07-08T04:38:22;26.40;95.70
10583;DHT22;33679;51.218;6.786;2023-07-08T04:40:55;26.50;96.00
10583;DHT22;33679;51.218;6.786;2023-07-08T04:43:29;26.50;95.60
10583;DHT22;33679;51.218;6.786;2023-07-08T04:46:02;26.50;95.60
10583;DHT22;33679;51.218;6.786;2023-07-08T04:48:34;26.60;95.50
10583;DHT22;33679;51.218;6.786;2023-07-08T04:51:07;26.60;95.50
10583;DHT22;33679;51.218;6.786;2023-07-08T04:53:40;26.60;95.50
10583;DHT22;33679;51.218;6.786;2023-07-08T04:56:13;26.70;95.40
10583;DHT22;33679;51.218;6.786;2023-07-08T04:58:47;26.70;95.30
10583;DHT22;33679;51.218;6.786;2023-07-08T05:01:19;26.70;95.30
10583;DHT22;33679;51.218;6.786;2023-07-08T05:03:52;26.70;95.40
10583;DHT22;33679;51.218;6.786;2023-07-08T05:06:24;26.70;95.40
10583;DHT22;33679;51.218;6.786;2023-07-08T05:08:58;26.70;95.40
10583;DHT22;33679;51.218;6.786;2023-07-08T05:11:30;26.70;95.30
10583;DHT22;33679;51.218;6.786;2023-07-08T05:14:05;26.70;95.30
10583;DHT22;33679;51.218;6.786;2023-07-08T05:16:37;26.80;95.00
10583;DHT22;33679;51.218;6.786;2023-07-08T05:19:11;26.80;94.90
10583;DHT22;33679;51.218;6.786;2023-07-08T05:21:43;26.90;94.90
10583;DHT22;33679;51.218;6.786;2023-07-08T05:24:16;26.80;94.70
10583;DHT22;33679;51.218;6.786;2023-07-08T05:26:48;27.00;94.60
10583;DHT22;33679;51.218;6.786;2023-07-08T05:29:21;27.00;94.60
10583;DHT22;33679;51.218;6.786;2023-07-08T05:31:54;27.10;94.50
10583;DHT22;33679;51.218;6.786;2023-07-08T05:34:28;27.10;94.30
10583;DHT22;33679;51.218;6.786;2023-07-08T05:37:00;27.20;94.30
10583;DHT22;33679;51.218;6.786;2023-07-08T05:39:33;27.30;94.20
10583;DHT22;33679;51.218;6.786;2023-07-08T05:42:06;27.40;94.00
10583;DHT22;33679;51.218;6.786;2023-07-08T05:44:40;27.50;94.00
10583;DHT22;33679;51.218;6.786;2023-07-08T05:47:13;27.60;93.60
10583;DHT22;33679;51.218;6.786;2023-07-08T05:49:45;27.70;93.40
10583;DHT22;33679;51.218;6.786;2023-07-08T05:52:17;27.70;93.30
10583;DHT22;33679;51.218;6.786;2023-07-08T05:54:50;28.10;93.40
10583;DHT22;33679;51.218;6.786;2023-07-08T05:57:22;29.00;93.00
10583;DHT22;33679;51.218;6.786;2023-07-08T05:59:56;29.90;92.40
10583;DHT22;33679;51.218;6.786;2023-07-08T06:02:28;31.00;91.70
10583;DHT22;33679;51.218;6.786;2023-07-08T06:05:01;32.20;90.60
10583;DHT22;33679;51.218;6.786;2023-07-08T06:07:33;33.50;89.10
10583;DHT22;33679;51.218;6.786;2023-07-08T06:10:06;34.70;86.90
10583;DHT22;33679;51.218;6.786;2023-07-08T06:12:39;35.80;83.60
10583;DHT22;33679;51.218;6.786;2023-07-08T06:15:13;36.70;82.20
10583;DHT22;33679;51.218;6.786;2023-07-08T06:17:46;37.30;80.40
10583;DHT22;33679;51.218;6.786;2023-07-08T06:20:18;37.60;79.20
10583;DHT22;33679;51.218;6.786;2023-07-08T06:22:50;37.80;78.90
10583;DHT22;33679;51.218;6.786;2023-07-08T06:25:22;37.60;78.20
10583;DHT22;33679;51.218;6.786;2023-07-08T06:27:58;37.30;78.40
10583;DHT22;33679;51.218;6.786;2023-07-08T06:30:32;36.80;78.40
10583;DHT22;33679;51.218;6.786;2023-07-08T06:33:06;36.20;79.30
10583;DHT22;33679;51.218;6.786;2023-07-08T06:35:38;35.50;79.20
10583;DHT22;33679;51.218;6.786;2023-07-08T06:38:12;35.00;80.90
10583;DHT22;33679;51.218;6.786;2023-07-08T06:40:44;34.50;81.50
10583;DHT22;33679;51.218;6.786;2023-07-08T06:43:17;34.00;81.90
10583;DHT22;33679;51.218;6.786;2023-07-08T06:45:55;33.60;82.10
10583;DHT22;33679;51.218;6.786;2023-07-08T06:48:27;33.20;82.20
10583;DHT22;33679;51.218;6.786;2023-07-08T06:50:59;32.80;83.10
10583;DHT22;33679;51.218;6.786;2023-07-08T06:53:31;32.50;83.80
10583;DHT22;33679;51.218;6.786;2023-07-08T06:56:06;32.20;84.20
10583;DHT22;33679;51.218;6.786;2023-07-08T06:58:38;31.90;84.50
10583;DHT22;33679;51.218;6.786;2023-07-08T07:01:12;31.60;84.80
10583;DHT22;33679;51.218;6.786;2023-07-08T07:03:45;31.30;85.30
10583;DHT22;33679;51.218;6.786;2023-07-08T07:06:17;31.00;85.70
10583;DHT22;33679;51.218;6.786;2023-07-08T07:08:50;30.80;86.30
10583;DHT22;33679;51.218;6.786;2023-07-08T07:11:22;30.70;87.00
10583;DHT22;33679;51.218;6.786;2023-07-08T07:13:55;30.50;87.20
10583;DHT22;33679;51.218;6.786;2023-07-08T07:16:29;30.40;87.30
10583;DHT22;33679;51.218;6.786;2023-07-08T07:19:01;30.30;87.80
10583;DHT22;33679;51.218;6.786;2023-07-08T07:21:34;30.20;87.70
10583;DHT22;33679;51.218;6.786;2023-07-08T07:24:06;30.00;87.90
10583;DHT22;33679;51.218;6.786;2023-07-08T07:26:39;29.90;88.00
10583;DHT22;33679;51.218;6.786;2023-07-08T07:29:13;29.90;88.20
10583;DHT22;33679;51.218;6.786;2023-07-08T07:31:48;29.80;87.80
10583;DHT22;33679;51.218;6.786;2023-07-08T07:34:22;29.70;88.40
10583;DHT22;33679;51.218;6.786;2023-07-08T07:36:54;29.70;88.80
10583;DHT22;33679;51.218;6.786;2023-07-08T07:39:26;29.70;87.90
10583;DHT22;33679;51.218;6.786;2023-07-08T07:42:00;29.60;87.50
10583;DHT22;33679;51.218;6.786;2023-07-08T07:44:55;29.50;86.80
10583;DHT22;33679;51.218;6.786;2023-07-08T07:47:29;29.50;86.20
10583;DHT22;33679;51.218;6.786;2023-07-08T07:50:02;29.50;86.10
10583;DHT22;33679;51.218;6.786;2023-07-08T07:52:35;29.50;86.10
10583;DHT22;33679;51.218;6.786;2023-07-08T07:55:09;29.50;85.90
10583;DHT22;33679;51.218;6.786;2023-07-08T07:57:41;29.50;85.60
10583;DHT22;33679;51.218;6.786;2023-07-08T08:00:16;29.50;85.80
10583;DHT22;33679;51.218;6.786;2023-07-08T08:02:51;29.60;85.70
10583;DHT22;33679;51.218;6.786;2023-07-08T08:05:24;29.60;85.70
10583;DHT22;33679;51.218;6.786;2023-07-08T08:07:56;29.60;85.80
10583;DHT22;33679;51.218;6.786;2023-07-08T08:10:29;29.70;85.70
10583;DHT22;33679;51.218;6.786;2023-07-08T08:13:06;29.80;85.10
10583;DHT22;33679;51.218;6.786;2023-07-08T08:15:40;29.80;85.10
10583;DHT22;33679;51.218;6.786;2023-07-08T08:18:14;29.80;85.40
10583;DHT22;33679;51.218;6.786;2023-07-08T08:20:50;29.80;85.90
10583;DHT22;33679;51.218;6.786;2023-07-08T08:23:22;29.80;86.00
10583;DHT22;33679;51.218;6.786;2023-07-08T08:25:55;29.90;86.20
10583;DHT22;33679;51.218;6.786;2023-07-08T08:28:27;30.00;86.50
10583;DHT22;33679;51.218;6.786;2023-07-08T08:31:00;30.00;86.60
10583;DHT22;33679;51.218;6.786;2023-07-08T08:33:33;30.10;86.40
10583;DHT22;33679;51.218;6.786;2023-07-08T08:36:07;30.20;86.50
10583;DHT22;33679;51.218;6.786;2023-07-08T08:38:39;30.20;86.20
10583;DHT22;33679;51.218;6.786;2023-07-08T08:41:13;30.20;86.30
10583;DHT22;33679;51.218;6.786;2023-07-08T08:43:47;30.20;86.60
10583;DHT22;33679;51.218;6.786;2023-07-08T08:46:30;30.30;86.30
10583;DHT22;33679;51.218;6.786;2023-07-08T08:49:16;30.40;85.90
10583;DHT22;33679;51.218;6.786;2023-07-08T08:51:49;30.50;85.30
10583;DHT22;33679;51.218;6.786;2023-07-08T08:54:22;30.50;85.50
10583;DHT22;33679;51.218;6.786;2023-07-08T08:57:02;30.60;85.90
10583;DHT22;33679;51.218;6.786;2023-07-08T08:59:44;30.60;85.30
10583;DHT22;33679;51.218;6.786;2023-07-08T09:02:28;30.70;85.30
10583;DHT22;33679;51.218;6.786;2023-07-08T09:05:07;30.80;85.10
10583;DHT22;33679;51.218;6.786;2023-07-08T09:07:45;30.90;85.20
10583;DHT22;33679;51.218;6.786;2023-07-08T09:10:29;30.90;85.10
10583;DHT22;33679;51.218;6.786;2023-07-08T09:13:08;31.00;85.00
10583;DHT22;33679;51.218;6.786;2023-07-08T09:15:43;31.00;85.20
10583;DHT22;33679;51.218;6.786;2023-07-08T09:18:25;31.10;84.90
10583;DHT22;33679;51.218;6.786;2023-07-08T09:21:17;31.10;85.00
10583;DHT22;33679;51.218;6.786;2023-07-08T09:23:54;31.20;84.70
10583;DHT22;33679;51.218;6.786;2023-07-08T09:26:32;31.20;84.60
10583;DHT22;33679;51.218;6.786;2023-07-08T09:29:08;31.30;84.90
10583;DHT22;33679;51.218;6.786;2023-07-08T09:31:41;31.30;85.10
10583;DHT22;33679;51.218;6.786;2023-07-08T09:34:21;31.30;85.00
10583;DHT22;33679;51.218;6.786;2023-07-08T09:36:55;31.30;85.10
10583;DHT22;33679;51.218;6.786;2023-07-08T09:39:29;31.40;85.50
10583;DHT22;33679;51.218;6.786;2023-07-08T09:42:06;31.50;85.50
10583;DHT22;33679;51.218;6.786;2023-07-08T09:44:40;31.50;85.20
10583;DHT22;33679;51.218;6.786;2023-07-08T09:47:33;31.60;84.80
10583;DHT22;33679;51.218;6.786;2023-07-08T09:50:19;31.60;84.60
10583;DHT22;33679;51.218;6.786;2023-07-08T09:52:55;31.70;84.60
10583;DHT22;33679;51.218;6.786;2023-07-08T09:55:28;31.70;84.70
10583;DHT22;33679;51.218;6.786;2023-07-08T09:58:03;31.80;84.80
10583;DHT22;33679;51.218;6.786;2023-07-08T10:00:40;31.90;85.00
10583;DHT22;33679;51.218;6.786;2023-07-08T10:03:17;31.90;84.80
10583;DHT22;33679;51.218;6.786;2023-07-08T10:05:53;31.90;84.50
10583;DHT22;33679;51.218;6.786;2023-07-08T10:08:36;31.90;84.30
10583;DHT22;33679;51.218;6.786;2023-07-08T10:11:19;32.00;84.40
10583;DHT22;33679;51.218;6.786;2023-07-08T10:13:57;32.10;84.40
10583;DHT22;33679;51.218;6.786;2023-07-08T10:16:32;32.10;84.30
10583;DHT22;33679;51.218;6.786;2023-07-08T10:19:13;32.10;84.20
10583;DHT22;33679;51.218;6.786;2023-07-08T10:21:53;32.20;84.30
10583;DHT22;33679;51.218;6.786;2023-07-08T10:24:49;32.20;84.00
10583;DHT22;33679;51.218;6.786;2023-07-08T10:27:40;32.20;84.10
10583;DHT22;33679;51.218;6.786;2023-07-08T10:30:22;32.30;84.00
10583;DHT22;33679;51.218;6.786;2023-07-08T10:33:19;32.40;84.30
10583;DHT22;33679;51.218;6.786;2023-07-08T10:36:05;32.40;84.40
10583;DHT22;33679;51.218;6.786;2023-07-08T10:38:49;32.40;84.50
10583;DHT22;33679;51.218;6.786;2023-07-08T10:41:30;32.50;84.40
10583;DHT22;33679;51.218;6.786;2023-07-08T10:44:12;32.50;84.40
10583;DHT22;33679;51.218;6.786;2023-07-08T10:46:50;32.60;83.90
10583;DHT22;33679;51.218;6.786;2023-07-08T10:49:49;32.70;84.00
10583;DHT22;33679;51.218;6.786;2023-07-08T10:52:35;32.70;84.00
10583;DHT22;33679;51.218;6.786;2023-07-08T10:55:20;32.70;84.90
10583;DHT22;33679;51.218;6.786;2023-07-08T10:58:16;32.80;84.20
10583;DHT22;33679;51.218;6.786;2023-07-08T11:00:56;32.90;84.00
10583;DHT22;33679;51.218;6.786;2023-07-08T11:03:48;32.90;84.10
10583;DHT22;33679;51.218;6.786;2023-07-08T11:06:29;33.00;84.20
10583;DHT22;33679;51.218;6.786;2023-07-08T11:09:04;32.90;83.70
10583;DHT22;33679;51.218;6.786;2023-07-08T11:11:42;32.90;84.00
10583;DHT22;33679;51.218;6.786;2023-07-08T11:14:23;33.00;83.70
10583;DHT22;33679;51.218;6.786;2023-07-08T11:17:08;33.00;83.90
10583;DHT22;33679;51.218;6.786;2023-07-08T11:19:51;33.00;84.30
10583;DHT22;33679;51.218;6.786;2023-07-08T11:22:28;33.00;84.00
10583;DHT22;33679;51.218;6.786;2023-07-08T11:25:04;33.00;83.70
10583;DHT22;33679;51.218;6.786;2023-07-08T11:27:40;33.10;83.40
10583;DHT22;33679;51.218;6.786;2023-07-08T11:30:17;33.20;83.50
10583;DHT22;33679;51.218;6.786;2023-07-08T11:32:57;33.20;83.50
10583;DHT22;33679;51.218;6.786;2023-07-08T11:35:38;33.30;83.40
10583;DHT22;33679;51.218;6.786;2023-07-08T11:38:14;33.40;83.60
10583;DHT22;33679;51.218;6.786;2023-07-08T11:40:52;33.40;83.30
10583;DHT22;33679;51.218;6.786;2023-07-08T11:43:28;33.40;83.20
10583;DHT22;33679;51.218;6.786;2023-07-08T11:46:07;33.50;82.50
10583;DHT22;33679;51.218;6.786;2023-07-08T11:48:43;33.50;82.00
10583;DHT22;33679;51.218;6.786;2023-07-08T11:51:19;33.60;82.20
10583;DHT22;33679;51.218;6.786;2023-07-08T11:54:09;33.60;82.40
10583;DHT22;33679;51.218;6.786;2023-07-08T11:56:57;33.70;81.70
10583;DHT22;33679;51.218;6.786;2023-07-08T11:59:33;33.80;81.50
10583;DHT22;33679;51.218;6.786;2023-07-08T12:02:13;33.80;80.50
10583;DHT22;33679;51.218;6.786;2023-07-08T12:04:56;33.80;80.20
10583;DHT22;33679;51.218;6.786;2023-07-08T12:07:33;33.90;80.00
10583;DHT22;33679;51.218;6.786;2023-07-08T12:10:11;33.90;79.80
10583;DHT22;33679;51.218;6.786;2023-07-08T12:12:46;34.00;80.50
10583;DHT22;33679;51.218;6.786;2023-07-08T12:15:22;34.10;80.80
10583;DHT22;33679;51.218;6.786;2023-07-08T12:17:59;34.10;80.50
10583;DHT22;33679;51.218;6.786;2023-07-08T12:20:34;34.20;80.50
10583;DHT22;33679;51.218;6.786;2023-07-08T12:23:11;34.10;80.00
10583;DHT22;33679;51.218;6.786;2023-07-08T12:25:45;34.10;80.50
10583;DHT22;33679;51.218;6.786;2023-07-08T12:28:17;34.20;80.10
10583;DHT22;33679;51.218;6.786;2023-07-08T12:30:50;34.30;79.60
10583;DHT22;33679;51.218;6.786;2023-07-08T12:33:29;34.30;79.40
10583;DHT22;33679;51.218;6.786;2023-07-08T12:36:02;34.40;79.40
10583;DHT22;33679;51.218;6.786;2023-07-08T12:38:38;34.40;79.20
10583;DHT22;33679;51.218;6.786;2023-07-08T12:41:13;34.50;79.70
10583;DHT22;33679;51.218;6.786;2023-07-08T12:43:47;34.50;79.50
10583;DHT22;33679;51.218;6.786;2023-07-08T12:46:21;34.60;78.90
10583;DHT22;33679;51.218;6.786;2023-07-08T12:48:54;34.50;78.60
10583;DHT22;33679;51.218;6.786;2023-07-08T12:51:27;34.60;78.90
10583;DHT22;33679;51.218;6.786;2023-07-08T12:53:59;34.70;79.10
10583;DHT22;33679;51.218;6.786;2023-07-08T12:56:35;34.70;79.10
10583;DHT22;33679;51.218;6.786;2023-07-08T12:59:08;34.70;79.30
10583;DHT22;33679;51.218;6.786;2023-07-08T13:01:45;34.80;79.70
10583;DHT22;33679;51.218;6.786;2023-07-08T13:04:21;34.80;79.50
10583;DHT22;33679;51.218;6.786;2023-07-08T13:06:55;34.80;79.50
10583;DHT22;33679;51.218;6.786;2023-07-08T13:09:34;34.80;79.20
10583;DHT22;33679;51.218;6.786;2023-07-08T13:12:13;34.90;79.70
10583;DHT22;33679;51.218;6.786;2023-07-08T13:14:47;34.90;79.60
10583;DHT22;33679;51.218;6.786;2023-07-08T13:17:22;35.00;79.60
10583;DHT22;33679;51.218;6.786;2023-07-08T13:19:58;35.00;79.20
10583;DHT22;33679;51.218;6.786;2023-07-08T13:22:31;35.00;79.00
10583;DHT22;33679;51.218;6.786;2023-07-08T13:25:13;35.00;78.90
10583;DHT22;33679;51.218;6.786;2023-07-08T13:27:55;35.00;78.10
10583;DHT22;33679;51.218;6.786;2023-07-08T13:30:30;35.10;77.40
10583;DHT22;33679;51.218;6.786;2023-07-08T13:33:02;35.10;77.60
10583;DHT22;33679;51.218;6.786;2023-07-08T13:35:38;35.10;77.50
10583;DHT22;33679;51.218;6.786;2023-07-08T13:38:14;35.10;77.50
10583;DHT22;33679;51.218;6.786;2023-07-08T13:40:54;35.10;77.30
10583;DHT22;33679;51.218;6.786;2023-07-08T13:43:30;35.20;77.00
10583;DHT22;33679;51.218;6.786;2023-07-08T13:46:04;35.20;76.50
10583;DHT22;33679;51.218;6.786;2023-07-08T13:48:38;35.30;77.70
10583;DHT22;33679;51.218;6.786;2023-07-08T13:51:18;35.30;77.00
10583;DHT22;33679;51.218;6.786;2023-07-08T13:53:54;35.30;76.80
10583;DHT22;33679;51.218;6.786;2023-07-08T13:56:31;35.30;76.70
10583;DHT22;33679;51.218;6.786;2023-07-08T13:59:07;35.40;77.10
10583;DHT22;33679;51.218;6.786;2023-07-08T14:01:42;35.40;76.20
10583;DHT22;33679;51.218;6.786;2023-07-08T14:04:17;35.40;76.00
10583;DHT22;33679;51.218;6.786;2023-07-08T14:06:51;35.50;76.30
10583;DHT22;33679;51.218;6.786;2023-07-08T14:09:24;35.40;76.10
10583;DHT22;33679;51.218;6.786;2023-07-08T14:11:56;35.40;76.10
10583;DHT22;33679;51.218;6.786;2023-07-08T14:14:28;35.40;75.70
10583;DHT22;33679;51.218;6.786;2023-07-08T14:17:02;35.50;75.90
10583;DHT22;33679;51.218;6.786;2023-07-08T14:19:34;35.60;75.70
10583;DHT22;33679;51.218;6.786;2023-07-08T14:22:20;35.60;75.80
10583;DHT22;33679;51.218;6.786;2023-07-08T14:24:54;35.60;75.70
10583;DHT22;33679;51.218;6.786;2023-07-08T14:27:29;35.60;75.70
10583;DHT22;33679;51.218;6.786;2023-07-08T14:30:02;35.60;75.40
10583;DHT22;33679;51.218;6.786;2023-07-08T14:32:35;35.60;74.80
10583;DHT22;33679;51.218;6.786;2023-07-08T14:35:17;35.60;74.70
10583;DHT22;33679;51.218;6.786;2023-07-08T14:37:50;35.60;74.80
10583;DHT22;33679;51.218;6.786;2023-07-08T14:40:29;35.60;75.10
10583;DHT22;33679;51.218;6.786;2023-07-08T14:43:06;35.60;75.00
10583;DHT22;33679;51.218;6.786;2023-07-08T14:45:40;35.50;74.80
10583;DHT22;33679;51.218;6.786;2023-07-08T14:48:15;35.50;75.20
10583;DHT22;33679;51.218;6.786;2023-07-08T14:50:48;35.60;75.30
10583;DHT22;33679;51.218;6.786;2023-07-08T14:53:23;35.60;74.90
10583;DHT22;33679;51.218;6.786;2023-07-08T14:55:56;35.60;74.10
10583;DHT22;33679;51.218;6.786;2023-07-08T14:58:31;35.60;74.00
10583;DHT22;33679;51.218;6.786;2023-07-08T15:01:18;35.70;74.30
10583;DHT22;33679;51.218;6.786;2023-07-08T15:03:52;35.70;74.40
10583;DHT22;33679;51.218;6.786;2023-07-08T15:06:26;35.70;74.40
10583;DHT22;33679;51.218;6.786;2023-07-08T15:09:01;35.70;74.00
10583;DHT22;33679;51.218;6.786;2023-07-08T15:11:35;35.70;74.20
10583;DHT22;33679;51.218;6.786;2023-07-08T15:14:18;35.70;74.40
10583;DHT22;33679;51.218;6.786;2023-07-08T15:16:51;35.70;74.60
10583;DHT22;33679;51.218;6.786;2023-07-08T15:19:24;35.60;74.80
10583;DHT22;33679;51.218;6.786;2023-07-08T15:21:56;35.60;75.00
10583;DHT22;33679;51.218;6.786;2023-07-08T15:24:32;35.60;75.10
10583;DHT22;33679;51.218;6.786;2023-07-08T15:27:06;35.50;75.20
10583;DHT22;33679;51.218;6.786;2023-07-08T15:29:43;35.50;75.10
10583;DHT22;33679;51.218;6.786;2023-07-08T15:32:15;35.50;75.20
10583;DHT22;33679;51.218;6.786;2023-07-08T15:34:50;35.60;75.20
10583;DHT22;33679;51.218;6.786;2023-07-08T15:37:24;35.60;75.30
10583;DHT22;33679;51.218;6.786;2023-07-08T15:39:57;35.60;75.20
10583;DHT22;33679;51.218;6.786;2023-07-08T15:42:30;35.70;75.80
10583;DHT22;33679;51.218;6.786;2023-07-08T15:45:04;35.80;75.10
10583;DHT22;33679;51.218;6.786;2023-07-08T15:47:41;35.90;75.10
10583;DHT22;33679;51.218;6.786;2023-07-08T15:50:16;36.00;74.90
10583;DHT22;33679;51.218;6.786;2023-07-08T15:52:48;36.10;74.90
10583;DHT22;33679;51.218;6.786;2023-07-08T15:55:26;36.20;74.40
10583;DHT22;33679;51.218;6.786;2023-07-08T15:58:03;36.30;75.10
10583;DHT22;33679;51.218;6.786;2023-07-08T16:00:40;36.30;74.20
10583;DHT22;33679;51.218;6.786;2023-07-08T16:03:22;36.30;74.10
10583;DHT22;33679;51.218;6.786;2023-07-08T16:05:57;36.40;74.20
10583;DHT22;33679;51.218;6.786;2023-07-08T16:08:44;36.30;74.20
10583;DHT22;33679;51.218;6.786;2023-07-08T16:11:30;36.30;74.30
10583;DHT22;33679;51.218;6.786;2023-07-08T16:14:07;36.40;74.40
10583;DHT22;33679;51.218;6.786;2023-07-08T16:16:40;36.30;74.20
10583;DHT22;33679;51.218;6.786;2023-07-08T16:19:14;36.20;74.30
10583;DHT22;33679;51.218;6.786;2023-07-08T16:21:46;36.20;74.50